sensor_id;sensor_type;location;lat;lon;timestamp;P1;durP1;ratioP1;P2;durP2;ratioP2
41404;SDS011;27146;51.788;8.824;2022-07-03T00:00:59;2.88;;;1.23;;
41404;SDS011;27146;51.788;8.824;2022-07-03T00:03:25;5.15;;;1.60;;
41404;SDS011;27146;51.788;8.824;2022-07-03T00:05:51;6.20;;;1.70;;
41404;SDS011;27146;51.788;8.824;2022-07-03T00:08:17;3.00;;;1.40;;
41404;SDS011;27146;51.788;8.824;2022-07-03T00:10:42;3.35;;;1.58;;
41404;SDS011;27146;51.788;8.824;2022-07-03T00:13:08;2.75;;;1.35;;
41404;SDS011;27146;51.788;8.824;2022-07-03T00:15:33;7.20;;;1.85;;
41404;SDS011;27146;51.788;8.824;2022-07-03T00:17:59;3.70;;;1.83;;
41404;SDS011;27146;51.788;8.824;2022-07-03T00:20:24;7.18;;;2.10;;
41404;SDS011;27146;51.788;8.824;2022-07-03T00:22:54;4.72;;;1.38;;
41404;SDS011;27146;51.788;8.824;2022-07-03T00:25:22;3.35;;;1.60;;
41404;SDS011;27146;51.788;8.824;2022-07-03T00:27:47;3.75;;;1.55;;
41404;SDS011;27146;51.788;8.824;2022-07-03T00:30:14;3.92;;;2.17;;
41404;SDS011;27146;51.788;8.824;2022-07-03T00:32:41;5.97;;;2.20;;
41404;SDS011;27146;51.788;8.824;2022-07-03T00:35:07;3.45;;;1.70;;
41404;SDS011;27146;51.788;8.824;2022-07-03T00:37:34;4.82;;;2.05;;
41404;SDS011;27146;51.788;8.824;2022-07-03T00:39:59;5.22;;;2.00;;
41404;SDS011;27146;51.788;8.824;2022-07-03T00:42:25;3.80;;;1.70;;
41404;SDS011;27146;51.788;8.824;2022-07-03T00:44:53;4.57;;;1.70;;
41404;SDS011;27146;51.788;8.824;2022-07-03T00:47:21;7.68;;;2.10;;
41404;SDS011;27146;51.788;8.824;2022-07-03T00:49:49;4.38;;;1.83;;
41404;SDS011;27146;51.788;8.824;2022-07-03T00:52:17;3.20;;;1.65;;
41404;SDS011;27146;51.788;8.824;2022-07-03T00:54:44;6.20;;;2.00;;
41404;SDS011;27146;51.788;8.824;2022-07-03T00:57:15;3.63;;;1.60;;
41404;SDS011;27146;51.788;8.824;2022-07-03T00:59:42;5.22;;;1.52;;
41404;SDS011;27146;51.788;8.824;2022-07-03T01:02:08;4.57;;;2.22;;
41404;SDS011;27146;51.788;8.824;2022-07-03T01:04:51;4.05;;;1.70;;
41404;SDS011;27146;51.788;8.824;2022-07-03T01:07:32;4.13;;;1.65;;
41404;SDS011;27146;51.788;8.824;2022-07-03T01:10:14;4.57;;;1.75;;
41404;SDS011;27146;51.788;8.824;2022-07-03T01:18:07;3.75;;;1.70;;
41404;SDS011;27146;51.788;8.824;2022-07-03T01:20:56;6.75;;;1.95;;
41404;SDS011;27146;51.788;8.824;2022-07-03T01:26:42;3.63;;;1.55;;
41404;SDS011;27146;51.788;8.824;2022-07-03T01:29:13;5.50;;;1.23;;
41404;SDS011;27146;51.788;8.824;2022-07-03T01:31:46;5.40;;;2.10;;
41404;SDS011;27146;51.788;8.824;2022-07-03T01:34:14;5.43;;;1.70;;
41404;SDS011;27146;51.788;8.824;2022-07-03T01:36:43;3.42;;;1.30;;
41404;SDS011;27146;51.788;8.824;2022-07-03T01:39:11;2.80;;;1.42;;
41404;SDS011;27146;51.788;8.824;2022-07-03T01:41:40;5.65;;;1.35;;
41404;SDS011;27146;51.788;8.824;2022-07-03T01:44:10;10.30;;;1.83;;
41404;SDS011;27146;51.788;8.824;2022-07-03T01:46:39;8.35;;;1.45;;
41404;SDS011;27146;51.788;8.824;2022-07-03T01:49:08;3.28;;;1.30;;
41404;SDS011;27146;51.788;8.824;2022-07-03T01:51:38;4.07;;;1.48;;
41404;SDS011;27146;51.788;8.824;2022-07-03T01:54:04;3.20;;;1.48;;
41404;SDS011;27146;51.788;8.824;2022-07-03T01:56:30;2.90;;;1.15;;
41404;SDS011;27146;51.788;8.824;2022-07-03T01:58:58;6.32;;;1.90;;
41404;SDS011;27146;51.788;8.824;2022-07-03T02:01:25;5.25;;;1.50;;
41404;SDS011;27146;51.788;8.824;2022-07-03T02:04:04;2.45;;;1.52;;
41404;SDS011;27146;51.788;8.824;2022-07-03T02:09:55;2.53;;;1.60;;
41404;SDS011;27146;51.788;8.824;2022-07-03T02:15:20;5.22;;;1.48;;
41404;SDS011;27146;51.788;8.824;2022-07-03T02:17:57;5.28;;;1.77;;
41404;SDS011;27146;51.788;8.824;2022-07-03T02:20:25;2.83;;;1.58;;
41404;SDS011;27146;51.788;8.824;2022-07-03T02:22:56;2.53;;;1.60;;
41404;SDS011;27146;51.788;8.824;2022-07-03T02:25:25;4.78;;;1.70;;
41404;SDS011;27146;51.788;8.824;2022-07-03T02:30:49;3.63;;;1.80;;
41404;SDS011;27146;51.788;8.824;2022-07-03T02:33:21;4.43;;;1.85;;
41404;SDS011;27146;51.788;8.824;2022-07-03T02:35:50;5.88;;;1.80;;
41404;SDS011;27146;51.788;8.824;2022-07-03T02:38:20;9.63;;;2.20;;
41404;SDS011;27146;51.788;8.824;2022-07-03T02:40:57;4.15;;;1.67;;
41404;SDS011;27146;51.788;8.824;2022-07-03T02:43:36;3.35;;;1.63;;
41404;SDS011;27146;51.788;8.824;2022-07-03T02:54:59;8.32;;;2.47;;
41404;SDS011;27146;51.788;8.824;2022-07-03T02:57:37;4.78;;;1.75;;
41404;SDS011;27146;51.788;8.824;2022-07-03T03:00:07;3.63;;;1.42;;
41404;SDS011;27146;51.788;8.824;2022-07-03T03:10:37;7.30;;;2.00;;
41404;SDS011;27146;51.788;8.824;2022-07-03T03:13:05;7.13;;;2.00;;
41404;SDS011;27146;51.788;8.824;2022-07-03T03:15:32;8.30;;;2.20;;
41404;SDS011;27146;51.788;8.824;2022-07-03T03:18:00;4.18;;;1.70;;
41404;SDS011;27146;51.788;8.824;2022-07-03T03:20:29;6.38;;;1.88;;
41404;SDS011;27146;51.788;8.824;2022-07-03T03:25:33;6.32;;;1.40;;
41404;SDS011;27146;51.788;8.824;2022-07-03T03:27:59;4.93;;;1.63;;
41404;SDS011;27146;51.788;8.824;2022-07-03T03:30:25;4.00;;;1.45;;
41404;SDS011;27146;51.788;8.824;2022-07-03T03:32:50;2.97;;;1.73;;
41404;SDS011;27146;51.788;8.824;2022-07-03T03:35:16;4.70;;;1.83;;
41404;SDS011;27146;51.788;8.824;2022-07-03T03:37:42;4.72;;;1.50;;
41404;SDS011;27146;51.788;8.824;2022-07-03T03:40:10;2.70;;;1.30;;
41404;SDS011;27146;51.788;8.824;2022-07-03T03:42:36;5.15;;;1.48;;
41404;SDS011;27146;51.788;8.824;2022-07-03T03:45:02;4.85;;;1.58;;
41404;SDS011;27146;51.788;8.824;2022-07-03T03:47:27;4.00;;;1.25;;
41404;SDS011;27146;51.788;8.824;2022-07-03T03:49:53;6.72;;;1.50;;
41404;SDS011;27146;51.788;8.824;2022-07-03T03:52:19;2.78;;;1.65;;
41404;SDS011;27146;51.788;8.824;2022-07-03T03:54:45;2.78;;;1.27;;
41404;SDS011;27146;51.788;8.824;2022-07-03T03:57:15;2.35;;;1.08;;
41404;SDS011;27146;51.788;8.824;2022-07-03T03:59:47;2.50;;;1.65;;
41404;SDS011;27146;51.788;8.824;2022-07-03T04:02:14;5.97;;;1.60;;
41404;SDS011;27146;51.788;8.824;2022-07-03T04:04:40;2.72;;;1.50;;
41404;SDS011;27146;51.788;8.824;2022-07-03T04:07:05;4.15;;;1.40;;
41404;SDS011;27146;51.788;8.824;2022-07-03T04:09:31;3.50;;;1.67;;
41404;SDS011;27146;51.788;8.824;2022-07-03T04:11:57;5.53;;;1.60;;
41404;SDS011;27146;51.788;8.824;2022-07-03T04:14:22;3.45;;;1.52;;
41404;SDS011;27146;51.788;8.824;2022-07-03T04:16:48;5.25;;;1.35;;
41404;SDS011;27146;51.788;8.824;2022-07-03T04:19:14;4.03;;;1.77;;
41404;SDS011;27146;51.788;8.824;2022-07-03T04:21:39;3.40;;;1.63;;
41404;SDS011;27146;51.788;8.824;2022-07-03T04:24:05;4.95;;;1.50;;
41404;SDS011;27146;51.788;8.824;2022-07-03T04:26:30;3.58;;;1.33;;
41404;SDS011;27146;51.788;8.824;2022-07-03T04:28:56;2.58;;;1.05;;
41404;SDS011;27146;51.788;8.824;2022-07-03T04:31:21;3.30;;;1.40;;
41404;SDS011;27146;51.788;8.824;2022-07-03T04:33:47;3.83;;;1.30;;
41404;SDS011;27146;51.788;8.824;2022-07-03T04:36:12;5.15;;;1.38;;
41404;SDS011;27146;51.788;8.824;2022-07-03T04:38:38;2.65;;;1.40;;
41404;SDS011;27146;51.788;8.824;2022-07-03T04:41:04;8.05;;;1.20;;
41404;SDS011;27146;51.788;8.824;2022-07-03T04:43:29;3.20;;;1.65;;
41404;SDS011;27146;51.788;8.824;2022-07-03T04:45:54;3.97;;;1.50;;
41404;SDS011;27146;51.788;8.824;2022-07-03T04:48:20;2.67;;;1.30;;
41404;SDS011;27146;51.788;8.824;2022-07-03T04:50:45;4.50;;;2.05;;
41404;SDS011;27146;51.788;8.824;2022-07-03T04:53:11;2.92;;;1.50;;
41404;SDS011;27146;51.788;8.824;2022-07-03T04:55:36;4.93;;;1.45;;
41404;SDS011;27146;51.788;8.824;2022-07-03T04:58:02;3.63;;;1.65;;
41404;SDS011;27146;51.788;8.824;2022-07-03T05:00:28;3.53;;;1.50;;
41404;SDS011;27146;51.788;8.824;2022-07-03T05:02:53;4.25;;;1.52;;
41404;SDS011;27146;51.788;8.824;2022-07-03T05:05:19;3.50;;;1.10;;
41404;SDS011;27146;51.788;8.824;2022-07-03T05:07:45;4.35;;;1.63;;
41404;SDS011;27146;51.788;8.824;2022-07-03T05:10:10;3.15;;;1.50;;
41404;SDS011;27146;51.788;8.824;2022-07-03T05:12:36;2.45;;;1.20;;
41404;SDS011;27146;51.788;8.824;2022-07-03T05:15:01;4.93;;;1.95;;
41404;SDS011;27146;51.788;8.824;2022-07-03T05:17:28;5.25;;;1.30;;
41404;SDS011;27146;51.788;8.824;2022-07-03T05:19:53;8.75;;;1.50;;
41404;SDS011;27146;51.788;8.824;2022-07-03T05:22:37;2.53;;;1.27;;
41404;SDS011;27146;51.788;8.824;2022-07-03T05:25:04;2.53;;;1.15;;
41404;SDS011;27146;51.788;8.824;2022-07-03T05:27:30;4.38;;;1.45;;
41404;SDS011;27146;51.788;8.824;2022-07-03T05:29:55;3.28;;;1.30;;
41404;SDS011;27146;51.788;8.824;2022-07-03T05:32:21;4.72;;;1.42;;
41404;SDS011;27146;51.788;8.824;2022-07-03T05:34:46;3.53;;;1.50;;
41404;SDS011;27146;51.788;8.824;2022-07-03T05:37:12;2.35;;;1.15;;
41404;SDS011;27146;51.788;8.824;2022-07-03T05:39:37;2.80;;;1.20;;
41404;SDS011;27146;51.788;8.824;2022-07-03T05:42:03;3.38;;;1.40;;
41404;SDS011;27146;51.788;8.824;2022-07-03T05:44:30;3.85;;;1.83;;
41404;SDS011;27146;51.788;8.824;2022-07-03T05:46:55;4.70;;;1.33;;
41404;SDS011;27146;51.788;8.824;2022-07-03T05:49:21;3.85;;;1.70;;
41404;SDS011;27146;51.788;8.824;2022-07-03T05:51:47;4.40;;;1.58;;
41404;SDS011;27146;51.788;8.824;2022-07-03T05:54:12;4.32;;;1.90;;
41404;SDS011;27146;51.788;8.824;2022-07-03T05:56:38;5.78;;;1.83;;
41404;SDS011;27146;51.788;8.824;2022-07-03T05:59:03;7.18;;;1.60;;
41404;SDS011;27146;51.788;8.824;2022-07-03T06:01:30;3.03;;;1.70;;
41404;SDS011;27146;51.788;8.824;2022-07-03T06:03:56;4.35;;;1.67;;
41404;SDS011;27146;51.788;8.824;2022-07-03T06:06:22;6.05;;;2.08;;
41404;SDS011;27146;51.788;8.824;2022-07-03T06:08:47;4.05;;;1.98;;
41404;SDS011;27146;51.788;8.824;2022-07-03T06:11:13;4.15;;;1.73;;
41404;SDS011;27146;51.788;8.824;2022-07-03T06:13:38;5.55;;;2.15;;
41404;SDS011;27146;51.788;8.824;2022-07-03T06:16:04;6.97;;;1.67;;
41404;SDS011;27146;51.788;8.824;2022-07-03T06:18:29;5.07;;;2.08;;
41404;SDS011;27146;51.788;8.824;2022-07-03T06:20:55;6.15;;;1.98;;
41404;SDS011;27146;51.788;8.824;2022-07-03T06:23:20;4.15;;;2.05;;
41404;SDS011;27146;51.788;8.824;2022-07-03T06:25:46;4.90;;;1.88;;
41404;SDS011;27146;51.788;8.824;2022-07-03T06:28:11;13.45;;;2.40;;
41404;SDS011;27146;51.788;8.824;2022-07-03T06:30:37;4.45;;;2.00;;
41404;SDS011;27146;51.788;8.824;2022-07-03T06:33:02;5.63;;;2.00;;
41404;SDS011;27146;51.788;8.824;2022-07-03T06:35:28;6.68;;;1.90;;
41404;SDS011;27146;51.788;8.824;2022-07-03T06:37:53;4.65;;;1.60;;
41404;SDS011;27146;51.788;8.824;2022-07-03T06:40:19;4.88;;;1.95;;
41404;SDS011;27146;51.788;8.824;2022-07-03T06:42:45;7.55;;;2.13;;
41404;SDS011;27146;51.788;8.824;2022-07-03T06:45:10;5.07;;;1.65;;
41404;SDS011;27146;51.788;8.824;2022-07-03T06:47:36;5.38;;;1.70;;
41404;SDS011;27146;51.788;8.824;2022-07-03T06:50:03;3.65;;;1.52;;
41404;SDS011;27146;51.788;8.824;2022-07-03T06:52:29;5.38;;;2.03;;
41404;SDS011;27146;51.788;8.824;2022-07-03T06:54:54;3.30;;;1.63;;
41404;SDS011;27146;51.788;8.824;2022-07-03T06:57:20;4.80;;;1.60;;
41404;SDS011;27146;51.788;8.824;2022-07-03T06:59:45;2.63;;;1.30;;
41404;SDS011;27146;51.788;8.824;2022-07-03T07:02:13;5.03;;;1.60;;
41404;SDS011;27146;51.788;8.824;2022-07-03T07:04:38;4.60;;;1.70;;
41404;SDS011;27146;51.788;8.824;2022-07-03T07:07:04;7.65;;;1.38;;
41404;SDS011;27146;51.788;8.824;2022-07-03T07:09:30;6.45;;;1.23;;
41404;SDS011;27146;51.788;8.824;2022-07-03T07:11:55;7.43;;;1.40;;
41404;SDS011;27146;51.788;8.824;2022-07-03T07:14:21;4.82;;;1.38;;
41404;SDS011;27146;51.788;8.824;2022-07-03T07:16:46;3.53;;;1.33;;
41404;SDS011;27146;51.788;8.824;2022-07-03T07:19:12;6.13;;;1.55;;
41404;SDS011;27146;51.788;8.824;2022-07-03T07:21:37;4.03;;;1.38;;
41404;SDS011;27146;51.788;8.824;2022-07-03T07:24:03;6.57;;;1.50;;
41404;SDS011;27146;51.788;8.824;2022-07-03T07:26:29;7.20;;;1.40;;
41404;SDS011;27146;51.788;8.824;2022-07-03T07:28:54;2.88;;;1.15;;
41404;SDS011;27146;51.788;8.824;2022-07-03T07:31:20;3.55;;;1.30;;
41404;SDS011;27146;51.788;8.824;2022-07-03T07:33:45;3.35;;;1.38;;
41404;SDS011;27146;51.788;8.824;2022-07-03T07:36:11;3.60;;;1.30;;
41404;SDS011;27146;51.788;8.824;2022-07-03T07:38:36;4.18;;;1.40;;
41404;SDS011;27146;51.788;8.824;2022-07-03T07:41:02;2.80;;;1.08;;
41404;SDS011;27146;51.788;8.824;2022-07-03T07:43:27;3.97;;;1.20;;
41404;SDS011;27146;51.788;8.824;2022-07-03T07:45:53;4.32;;;1.00;;
41404;SDS011;27146;51.788;8.824;2022-07-03T07:48:18;4.28;;;1.23;;
41404;SDS011;27146;51.788;8.824;2022-07-03T07:50:44;2.85;;;0.95;;
41404;SDS011;27146;51.788;8.824;2022-07-03T07:53:09;3.53;;;1.00;;
41404;SDS011;27146;51.788;8.824;2022-07-03T07:55:35;5.00;;;1.33;;
41404;SDS011;27146;51.788;8.824;2022-07-03T07:58:01;3.28;;;1.00;;
41404;SDS011;27146;51.788;8.824;2022-07-03T08:00:26;3.45;;;1.08;;
41404;SDS011;27146;51.788;8.824;2022-07-03T08:02:52;3.97;;;1.15;;
41404;SDS011;27146;51.788;8.824;2022-07-03T08:05:36;4.97;;;1.08;;
41404;SDS011;27146;51.788;8.824;2022-07-03T08:10:37;2.83;;;1.05;;
41404;SDS011;27146;51.788;8.824;2022-07-03T08:13:08;6.18;;;1.02;;
41404;SDS011;27146;51.788;8.824;2022-07-03T08:15:34;2.60;;;1.00;;
41404;SDS011;27146;51.788;8.824;2022-07-03T08:18:01;4.93;;;1.10;;
41404;SDS011;27146;51.788;8.824;2022-07-03T08:20:27;3.53;;;0.82;;
41404;SDS011;27146;51.788;8.824;2022-07-03T08:22:53;3.83;;;1.00;;
41404;SDS011;27146;51.788;8.824;2022-07-03T08:25:18;4.38;;;1.10;;
41404;SDS011;27146;51.788;8.824;2022-07-03T08:27:44;3.38;;;1.05;;
41404;SDS011;27146;51.788;8.824;2022-07-03T08:30:09;4.50;;;1.20;;
41404;SDS011;27146;51.788;8.824;2022-07-03T08:32:36;3.85;;;1.10;;
41404;SDS011;27146;51.788;8.824;2022-07-03T08:35:01;5.72;;;1.15;;
41404;SDS011;27146;51.788;8.824;2022-07-03T08:37:27;5.38;;;1.05;;
41404;SDS011;27146;51.788;8.824;2022-07-03T08:39:53;4.90;;;0.98;;
41404;SDS011;27146;51.788;8.824;2022-07-03T08:42:18;4.60;;;0.82;;
41404;SDS011;27146;51.788;8.824;2022-07-03T08:44:45;3.67;;;0.88;;
41404;SDS011;27146;51.788;8.824;2022-07-03T08:47:11;4.72;;;1.10;;
41404;SDS011;27146;51.788;8.824;2022-07-03T08:49:40;3.33;;;0.75;;
41404;SDS011;27146;51.788;8.824;2022-07-03T08:52:07;5.70;;;0.63;;
41404;SDS011;27146;51.788;8.824;2022-07-03T08:54:34;2.45;;;0.80;;
41404;SDS011;27146;51.788;8.824;2022-07-03T08:57:00;6.10;;;0.70;;
41404;SDS011;27146;51.788;8.824;2022-07-03T08:59:28;3.22;;;0.70;;
41404;SDS011;27146;51.788;8.824;2022-07-03T09:04:25;5.15;;;0.60;;
41404;SDS011;27146;51.788;8.824;2022-07-03T09:06:50;2.72;;;0.60;;
41404;SDS011;27146;51.788;8.824;2022-07-03T09:09:17;4.72;;;0.80;;
41404;SDS011;27146;51.788;8.824;2022-07-03T09:11:42;3.17;;;0.60;;
41404;SDS011;27146;51.788;8.824;2022-07-03T09:14:12;3.97;;;0.77;;
41404;SDS011;27146;51.788;8.824;2022-07-03T09:16:38;3.38;;;0.50;;
41404;SDS011;27146;51.788;8.824;2022-07-03T09:19:03;4.55;;;0.70;;
41404;SDS011;27146;51.788;8.824;2022-07-03T09:21:39;2.67;;;0.60;;
41404;SDS011;27146;51.788;8.824;2022-07-03T09:24:06;3.13;;;0.57;;
41404;SDS011;27146;51.788;8.824;2022-07-03T09:26:33;3.65;;;0.73;;
41404;SDS011;27146;51.788;8.824;2022-07-03T09:28:59;2.25;;;0.80;;
41404;SDS011;27146;51.788;8.824;2022-07-03T09:31:26;6.30;;;1.02;;
41404;SDS011;27146;51.788;8.824;2022-07-03T09:33:53;6.53;;;0.60;;
41404;SDS011;27146;51.788;8.824;2022-07-03T09:36:45;4.05;;;0.50;;
41404;SDS011;27146;51.788;8.824;2022-07-03T09:39:19;2.38;;;0.55;;
41404;SDS011;27146;51.788;8.824;2022-07-03T09:44:36;2.05;;;0.85;;
41404;SDS011;27146;51.788;8.824;2022-07-03T09:47:10;2.75;;;0.82;;
41404;SDS011;27146;51.788;8.824;2022-07-03T09:50:09;2.13;;;0.65;;
41404;SDS011;27146;51.788;8.824;2022-07-03T09:52:30;1.63;;;0.50;;
41404;SDS011;27146;51.788;8.824;2022-07-03T09:57:33;3.95;;;0.60;;
41404;SDS011;27146;51.788;8.824;2022-07-03T10:00:12;1.75;;;0.50;;
41404;SDS011;27146;51.788;8.824;2022-07-03T10:05:30;2.05;;;0.50;;
41404;SDS011;27146;51.788;8.824;2022-07-03T10:10:28;4.15;;;0.68;;
41404;SDS011;27146;51.788;8.824;2022-07-03T10:12:56;6.30;;;0.70;;
41404;SDS011;27146;51.788;8.824;2022-07-03T10:15:22;4.32;;;0.60;;
41404;SDS011;27146;51.788;8.824;2022-07-03T10:17:50;2.90;;;0.82;;
41404;SDS011;27146;51.788;8.824;2022-07-03T10:20:30;1.98;;;0.70;;
41404;SDS011;27146;51.788;8.824;2022-07-03T10:22:59;3.13;;;0.70;;
41404;SDS011;27146;51.788;8.824;2022-07-03T10:25:25;1.65;;;0.55;;
41404;SDS011;27146;51.788;8.824;2022-07-03T10:27:50;5.50;;;0.90;;
41404;SDS011;27146;51.788;8.824;2022-07-03T10:30:17;1.92;;;0.70;;
41404;SDS011;27146;51.788;8.824;2022-07-03T10:32:45;2.30;;;0.60;;
41404;SDS011;27146;51.788;8.824;2022-07-03T10:35:15;3.45;;;0.75;;
41404;SDS011;27146;51.788;8.824;2022-07-03T10:43:39;3.97;;;0.80;;
41404;SDS011;27146;51.788;8.824;2022-07-03T10:46:26;7.50;;;0.82;;
41404;SDS011;27146;51.788;8.824;2022-07-03T10:48:53;3.47;;;0.90;;
41404;SDS011;27146;51.788;8.824;2022-07-03T10:51:22;5.15;;;0.93;;
41404;SDS011;27146;51.788;8.824;2022-07-03T10:53:48;9.50;;;0.90;;
41404;SDS011;27146;51.788;8.824;2022-07-03T10:56:14;5.00;;;0.75;;
41404;SDS011;27146;51.788;8.824;2022-07-03T10:58:55;4.30;;;0.70;;
41404;SDS011;27146;51.788;8.824;2022-07-03T11:01:25;6.13;;;1.35;;
41404;SDS011;27146;51.788;8.824;2022-07-03T11:09:11;4.68;;;0.75;;
41404;SDS011;27146;51.788;8.824;2022-07-03T11:11:47;6.13;;;0.93;;
41404;SDS011;27146;51.788;8.824;2022-07-03T11:14:25;3.47;;;1.00;;
41404;SDS011;27146;51.788;8.824;2022-07-03T11:19:47;3.55;;;0.70;;
41404;SDS011;27146;51.788;8.824;2022-07-03T11:25:23;2.88;;;0.70;;
41404;SDS011;27146;51.788;8.824;2022-07-03T11:27:50;3.88;;;0.70;;
41404;SDS011;27146;51.788;8.824;2022-07-03T11:30:17;3.72;;;0.68;;
41404;SDS011;27146;51.788;8.824;2022-07-03T11:38:23;4.53;;;0.82;;
41404;SDS011;27146;51.788;8.824;2022-07-03T11:40:51;3.13;;;0.68;;
41404;SDS011;27146;51.788;8.824;2022-07-03T11:43:18;7.50;;;0.90;;
41404;SDS011;27146;51.788;8.824;2022-07-03T11:45:45;2.97;;;0.70;;
41404;SDS011;27146;51.788;8.824;2022-07-03T11:48:13;1.95;;;0.57;;
41404;SDS011;27146;51.788;8.824;2022-07-03T11:50:40;3.78;;;0.80;;
41404;SDS011;27146;51.788;8.824;2022-07-03T11:55:45;5.22;;;0.60;;
41404;SDS011;27146;51.788;8.824;2022-07-03T11:58:11;3.10;;;0.50;;
41404;SDS011;27146;51.788;8.824;2022-07-03T12:00:37;4.35;;;0.60;;
41404;SDS011;27146;51.788;8.824;2022-07-03T12:03:03;3.38;;;0.68;;
41404;SDS011;27146;51.788;8.824;2022-07-03T12:05:28;3.85;;;0.70;;
41404;SDS011;27146;51.788;8.824;2022-07-03T12:08:04;2.25;;;0.57;;
41404;SDS011;27146;51.788;8.824;2022-07-03T12:10:39;2.35;;;0.57;;
41404;SDS011;27146;51.788;8.824;2022-07-03T12:13:18;5.22;;;0.85;;
41404;SDS011;27146;51.788;8.824;2022-07-03T12:15:48;3.60;;;0.63;;
41404;SDS011;27146;51.788;8.824;2022-07-03T12:18:14;5.72;;;1.05;;
41404;SDS011;27146;51.788;8.824;2022-07-03T12:20:40;3.33;;;0.88;;
41404;SDS011;27146;51.788;8.824;2022-07-03T12:23:06;1.88;;;0.50;;
41404;SDS011;27146;51.788;8.824;2022-07-03T12:25:32;2.22;;;0.70;;
41404;SDS011;27146;51.788;8.824;2022-07-03T12:28:07;2.10;;;0.95;;
41404;SDS011;27146;51.788;8.824;2022-07-03T12:30:34;4.05;;;0.60;;
41404;SDS011;27146;51.788;8.824;2022-07-03T12:33:01;2.95;;;0.47;;
41404;SDS011;27146;51.788;8.824;2022-07-03T12:35:28;2.83;;;0.70;;
41404;SDS011;27146;51.788;8.824;2022-07-03T12:37:53;3.22;;;1.10;;
41404;SDS011;27146;51.788;8.824;2022-07-03T12:40:19;4.78;;;0.55;;
41404;SDS011;27146;51.788;8.824;2022-07-03T12:42:49;3.33;;;0.60;;
41404;SDS011;27146;51.788;8.824;2022-07-03T12:45:17;2.42;;;0.80;;
41404;SDS011;27146;51.788;8.824;2022-07-03T12:47:44;1.98;;;0.50;;
41404;SDS011;27146;51.788;8.824;2022-07-03T12:50:11;3.10;;;0.68;;
41404;SDS011;27146;51.788;8.824;2022-07-03T12:52:55;4.20;;;0.80;;
41404;SDS011;27146;51.788;8.824;2022-07-03T12:55:23;4.22;;;0.65;;
41404;SDS011;27146;51.788;8.824;2022-07-03T12:57:49;4.05;;;0.80;;
41404;SDS011;27146;51.788;8.824;2022-07-03T13:00:41;3.05;;;0.60;;
41404;SDS011;27146;51.788;8.824;2022-07-03T13:03:08;5.63;;;0.73;;
41404;SDS011;27146;51.788;8.824;2022-07-03T13:05:50;2.85;;;0.73;;
41404;SDS011;27146;51.788;8.824;2022-07-03T13:08:15;2.45;;;0.73;;
41404;SDS011;27146;51.788;8.824;2022-07-03T13:10:41;3.05;;;0.85;;
41404;SDS011;27146;51.788;8.824;2022-07-03T13:13:06;2.72;;;0.45;;
41404;SDS011;27146;51.788;8.824;2022-07-03T13:15:32;2.60;;;0.70;;
41404;SDS011;27146;51.788;8.824;2022-07-03T13:17:58;3.28;;;0.60;;
41404;SDS011;27146;51.788;8.824;2022-07-03T13:20:26;2.90;;;0.80;;
41404;SDS011;27146;51.788;8.824;2022-07-03T13:22:53;2.38;;;1.00;;
41404;SDS011;27146;51.788;8.824;2022-07-03T13:25:20;4.72;;;0.60;;
41404;SDS011;27146;51.788;8.824;2022-07-03T13:27:46;3.70;;;0.93;;
41404;SDS011;27146;51.788;8.824;2022-07-03T13:30:13;2.00;;;0.73;;
41404;SDS011;27146;51.788;8.824;2022-07-03T13:32:39;2.92;;;0.75;;
41404;SDS011;27146;51.788;8.824;2022-07-03T13:35:05;4.35;;;0.80;;
41404;SDS011;27146;51.788;8.824;2022-07-03T13:37:31;4.13;;;0.65;;
41404;SDS011;27146;51.788;8.824;2022-07-03T13:39:57;3.25;;;0.73;;
41404;SDS011;27146;51.788;8.824;2022-07-03T13:42:23;2.85;;;0.65;;
41404;SDS011;27146;51.788;8.824;2022-07-03T13:44:48;4.13;;;0.82;;
41404;SDS011;27146;51.788;8.824;2022-07-03T13:47:15;3.60;;;0.75;;
41404;SDS011;27146;51.788;8.824;2022-07-03T13:49:41;1.77;;;0.60;;
41404;SDS011;27146;51.788;8.824;2022-07-03T13:52:06;2.10;;;0.70;;
41404;SDS011;27146;51.788;8.824;2022-07-03T13:54:32;2.53;;;0.70;;
41404;SDS011;27146;51.788;8.824;2022-07-03T13:56:58;1.98;;;0.60;;
41404;SDS011;27146;51.788;8.824;2022-07-03T13:59:24;4.88;;;0.80;;
41404;SDS011;27146;51.788;8.824;2022-07-03T14:01:49;4.95;;;0.85;;
41404;SDS011;27146;51.788;8.824;2022-07-03T14:04:15;4.38;;;0.80;;
41404;SDS011;27146;51.788;8.824;2022-07-03T14:06:40;6.53;;;0.75;;
41404;SDS011;27146;51.788;8.824;2022-07-03T14:09:06;3.63;;;0.60;;
41404;SDS011;27146;51.788;8.824;2022-07-03T14:11:31;2.58;;;1.00;;
41404;SDS011;27146;51.788;8.824;2022-07-03T14:13:57;2.25;;;0.77;;
41404;SDS011;27146;51.788;8.824;2022-07-03T14:16:23;5.13;;;0.70;;
41404;SDS011;27146;51.788;8.824;2022-07-03T14:18:48;2.13;;;0.77;;
41404;SDS011;27146;51.788;8.824;2022-07-03T14:21:14;2.67;;;0.73;;
41404;SDS011;27146;51.788;8.824;2022-07-03T14:23:39;3.65;;;0.65;;
41404;SDS011;27146;51.788;8.824;2022-07-03T14:26:05;5.35;;;0.80;;
41404;SDS011;27146;51.788;8.824;2022-07-03T14:28:30;8.82;;;0.98;;
41404;SDS011;27146;51.788;8.824;2022-07-03T14:31:34;3.95;;;0.73;;
41404;SDS011;27146;51.788;8.824;2022-07-03T14:34:18;7.35;;;0.70;;
41404;SDS011;27146;51.788;8.824;2022-07-03T14:36:44;6.65;;;0.90;;
41404;SDS011;27146;51.788;8.824;2022-07-03T14:39:09;4.13;;;0.88;;
41404;SDS011;27146;51.788;8.824;2022-07-03T14:41:35;5.35;;;0.90;;
41404;SDS011;27146;51.788;8.824;2022-07-03T14:44:00;6.65;;;1.00;;
41404;SDS011;27146;51.788;8.824;2022-07-03T14:46:26;4.60;;;1.00;;
41404;SDS011;27146;51.788;8.824;2022-07-03T14:48:51;3.22;;;0.98;;
41404;SDS011;27146;51.788;8.824;2022-07-03T14:51:19;3.20;;;0.95;;
41404;SDS011;27146;51.788;8.824;2022-07-03T14:53:45;2.90;;;0.90;;
41404;SDS011;27146;51.788;8.824;2022-07-03T14:56:11;4.03;;;0.80;;
41404;SDS011;27146;51.788;8.824;2022-07-03T14:58:42;6.90;;;1.02;;
41404;SDS011;27146;51.788;8.824;2022-07-03T15:01:11;7.70;;;0.98;;
41404;SDS011;27146;51.788;8.824;2022-07-03T15:03:37;4.32;;;1.20;;
41404;SDS011;27146;51.788;8.824;2022-07-03T15:06:20;4.90;;;1.02;;
41404;SDS011;27146;51.788;8.824;2022-07-03T15:09:07;7.55;;;1.20;;
41404;SDS011;27146;51.788;8.824;2022-07-03T15:11:34;4.18;;;0.82;;
41404;SDS011;27146;51.788;8.824;2022-07-03T15:14:43;4.97;;;1.00;;
41404;SDS011;27146;51.788;8.824;2022-07-03T15:17:10;6.25;;;1.15;;
41404;SDS011;27146;51.788;8.824;2022-07-03T15:19:37;4.85;;;1.00;;
41404;SDS011;27146;51.788;8.824;2022-07-03T15:22:05;3.58;;;1.20;;
41404;SDS011;27146;51.788;8.824;2022-07-03T15:24:35;6.90;;;0.95;;
41404;SDS011;27146;51.788;8.824;2022-07-03T15:27:01;4.88;;;0.95;;
41404;SDS011;27146;51.788;8.824;2022-07-03T15:29:29;4.20;;;1.10;;
41404;SDS011;27146;51.788;8.824;2022-07-03T15:31:55;6.63;;;0.95;;
41404;SDS011;27146;51.788;8.824;2022-07-03T15:34:27;9.23;;;1.23;;
41404;SDS011;27146;51.788;8.824;2022-07-03T15:37:18;3.63;;;1.10;;
41404;SDS011;27146;51.788;8.824;2022-07-03T15:42:51;3.25;;;1.20;;
41404;SDS011;27146;51.788;8.824;2022-07-03T15:53:41;6.40;;;1.00;;
41404;SDS011;27146;51.788;8.824;2022-07-03T15:56:11;3.95;;;1.10;;
41404;SDS011;27146;51.788;8.824;2022-07-03T15:58:43;6.97;;;1.05;;
41404;SDS011;27146;51.788;8.824;2022-07-03T16:01:13;3.17;;;0.82;;
41404;SDS011;27146;51.788;8.824;2022-07-03T16:04:08;7.40;;;0.93;;
41404;SDS011;27146;51.788;8.824;2022-07-03T16:06:40;3.17;;;0.90;;
41404;SDS011;27146;51.788;8.824;2022-07-03T16:09:06;3.95;;;1.00;;
41404;SDS011;27146;51.788;8.824;2022-07-03T16:11:36;7.15;;;1.20;;
41404;SDS011;27146;51.788;8.824;2022-07-03T16:14:03;4.00;;;0.88;;
41404;SDS011;27146;51.788;8.824;2022-07-03T16:16:30;5.80;;;0.95;;
41404;SDS011;27146;51.788;8.824;2022-07-03T16:18:56;5.60;;;1.00;;
41404;SDS011;27146;51.788;8.824;2022-07-03T16:21:29;3.08;;;1.00;;
41404;SDS011;27146;51.788;8.824;2022-07-03T16:23:55;4.00;;;1.20;;